createdAt,value
2022-09-16T00:00:10.340Z,0.00
2022-09-16T00:01:10.439Z,0.00
2022-09-16T00:02:10.357Z,0.00
2022-09-16T00:03:11.250Z,0.00
2022-09-16T00:04:11.238Z,0.00
2022-09-16T00:05:10.280Z,0.00
2022-09-16T00:06:10.257Z,0.00
2022-09-16T00:07:10.248Z,0.00
2022-09-16T00:08:10.236Z,0.00
2022-09-16T00:09:10.220Z,0.00
2022-09-16T00:10:10.212Z,0.00
2022-09-16T00:11:10.195Z,0.00
2022-09-16T00:12:10.178Z,0.00
2022-09-16T00:13:10.169Z,0.00
2022-09-16T00:14:10.152Z,0.00
2022-09-16T00:15:10.163Z,0.00
2022-09-16T00:16:10.154Z,0.00
2022-09-16T00:17:11.074Z,0.00
2022-09-16T00:18:10.100Z,0.00
2022-09-16T00:19:10.090Z,0.00
2022-09-16T00:20:10.083Z,0.00
2022-09-16T00:21:10.065Z,0.00
2022-09-16T00:22:11.004Z,0.00
2022-09-16T00:23:10.992Z,0.00
2022-09-16T00:24:10.016Z,0.00
2022-09-16T00:25:10.019Z,0.00
2022-09-16T00:26:09.992Z,0.00
2022-09-16T00:27:09.985Z,0.00
2022-09-16T00:28:09.975Z,0.00
2022-09-16T00:29:09.967Z,0.00
2022-09-16T00:30:09.956Z,0.00
2022-09-16T00:31:10.042Z,0.00
2022-09-16T00:32:09.916Z,0.00
2022-09-16T00:33:10.869Z,0.00
2022-09-16T00:34:09.887Z,0.00
2022-09-16T00:35:09.888Z,0.00
2022-09-16T00:36:09.873Z,0.00
2022-09-16T00:37:09.860Z,0.00
2022-09-16T00:38:10.785Z,0.00
2022-09-16T00:39:09.829Z,0.00
2022-09-16T00:40:09.872Z,0.00
2022-09-16T00:41:09.799Z,0.00
2022-09-16T00:42:09.781Z,0.00
2022-09-16T00:43:09.780Z,0.00
2022-09-16T00:44:09.760Z,0.00
2022-09-16T00:45:09.756Z,0.00
2022-09-16T00:46:09.732Z,0.00
2022-09-16T00:47:09.820Z,0.00
2022-09-16T00:48:10.668Z,0.00
2022-09-16T00:49:09.702Z,0.00
2022-09-16T00:50:09.718Z,0.00
2022-09-16T00:51:09.672Z,0.00
2022-09-16T00:52:09.654Z,0.00
2022-09-16T00:53:09.644Z,0.00
2022-09-16T00:54:09.624Z,0.00
2022-09-16T00:55:09.623Z,0.00
2022-09-16T00:56:09.609Z,0.00
2022-09-16T00:57:09.595Z,0.00
2022-09-16T00:58:10.375Z,0.00
2022-09-16T00:59:09.566Z,0.00
2022-09-16T01:00:09.684Z,0.00
2022-09-16T01:01:09.689Z,0.00
2022-09-16T01:02:09.624Z,0.00
2022-09-16T01:03:09.512Z,0.00
2022-09-16T01:04:09.506Z,0.00
2022-09-16T01:05:09.486Z,0.00
2022-09-16T01:06:09.474Z,0.00
2022-09-16T01:07:09.457Z,0.00
2022-09-16T01:08:09.447Z,0.00
2022-09-16T01:09:09.457Z,0.00
2022-09-16T01:10:09.418Z,0.00
2022-09-16T01:11:09.407Z,0.00
2022-09-16T01:12:09.388Z,0.00
2022-09-16T01:13:09.378Z,0.00
2022-09-16T01:14:09.369Z,0.00
2022-09-16T01:15:09.358Z,0.00
2022-09-16T01:16:09.370Z,0.00
2022-09-16T01:17:09.329Z,0.00
2022-09-16T01:18:09.309Z,0.00
2022-09-16T01:19:09.310Z,0.00
2022-09-16T01:20:09.291Z,0.00
2022-09-16T01:21:09.276Z,0.00
2022-09-16T01:22:09.261Z,0.00
2022-09-16T01:23:09.251Z,0.00
2022-09-16T01:24:09.243Z,0.00
2022-09-16T01:25:09.238Z,0.00
2022-09-16T01:26:09.208Z,0.00
2022-09-16T01:27:09.204Z,0.00
2022-09-16T01:28:09.188Z,0.00
2022-09-16T01:29:09.182Z,0.00
2022-09-16T01:30:09.157Z,0.00
2022-09-16T01:31:10.158Z,0.00
2022-09-16T01:32:09.133Z,0.00
2022-09-16T01:33:09.120Z,0.00
2022-09-16T01:34:09.113Z,0.00
2022-09-16T01:35:09.082Z,0.00
2022-09-16T01:36:09.073Z,0.00
2022-09-16T01:37:09.073Z,0.00
2022-09-16T01:38:09.045Z,0.00
2022-09-16T01:39:09.044Z,0.00
2022-09-16T01:40:09.069Z,0.00
2022-09-16T01:41:09.004Z,0.00
2022-09-16T01:42:08.995Z,0.00
2022-09-16T01:43:08.984Z,0.00
2022-09-16T01:44:08.965Z,0.00
2022-09-16T01:45:08.955Z,0.00
2022-09-16T01:46:08.975Z,0.00
2022-09-16T01:47:08.927Z,0.00
2022-09-16T01:48:08.906Z,0.00
2022-09-16T01:49:08.906Z,0.00
2022-09-16T01:50:08.886Z,0.00
2022-09-16T01:51:08.874Z,0.00
2022-09-16T01:52:08.857Z,0.00
2022-09-16T01:53:08.857Z,0.00
2022-09-16T01:54:08.847Z,0.00
2022-09-16T01:55:08.827Z,0.00
2022-09-16T01:56:08.809Z,0.00
2022-09-16T01:57:08.801Z,0.00
2022-09-16T01:58:08.828Z,0.00
2022-09-16T01:59:08.790Z,0.00
2022-09-16T02:00:08.749Z,0.00
2022-09-16T02:01:08.746Z,0.00
2022-09-16T02:02:08.819Z,0.00
2022-09-16T02:03:08.732Z,0.00
2022-09-16T02:04:08.700Z,0.00
2022-09-16T02:05:08.691Z,0.00
2022-09-16T02:06:08.671Z,0.00
2022-09-16T02:07:08.677Z,0.00
2022-09-16T02:08:08.672Z,0.00
2022-09-16T02:09:08.644Z,0.00
2022-09-16T02:10:08.621Z,0.00
2022-09-16T02:11:08.612Z,0.00
2022-09-16T02:12:08.592Z,0.00
2022-09-16T02:13:08.600Z,0.00
2022-09-16T02:14:08.586Z,0.00
2022-09-16T02:15:08.568Z,0.00
2022-09-16T02:16:08.614Z,0.00
2022-09-16T02:17:08.537Z,0.00
2022-09-16T02:18:08.526Z,0.00
2022-09-16T02:19:08.514Z,0.00
2022-09-16T02:20:08.485Z,0.00
2022-09-16T02:21:08.482Z,0.00
2022-09-16T02:22:08.466Z,0.00
2022-09-16T02:23:08.465Z,0.00
2022-09-16T02:24:08.446Z,0.00
2022-09-16T02:25:08.446Z,0.00
2022-09-16T02:26:09.356Z,0.00
2022-09-16T02:27:08.416Z,0.00
2022-09-16T02:28:08.387Z,0.00
2022-09-16T02:29:08.379Z,0.00
2022-09-16T02:30:08.357Z,0.00
2022-09-16T02:31:08.405Z,0.00
2022-09-16T02:32:08.347Z,0.00
2022-09-16T02:33:08.327Z,0.00
2022-09-16T02:34:08.303Z,0.00
2022-09-16T02:35:08.298Z,0.00
2022-09-16T02:36:08.278Z,0.00
2022-09-16T02:37:08.279Z,0.00
2022-09-16T02:38:08.249Z,0.00
2022-09-16T02:39:08.249Z,0.00
2022-09-16T02:40:08.268Z,0.00
2022-09-16T02:41:08.221Z,0.00
2022-09-16T02:42:08.210Z,0.00
2022-09-16T02:43:08.190Z,0.00
2022-09-16T02:44:08.183Z,0.00
2022-09-16T02:45:08.169Z,0.00
2022-09-16T02:46:08.211Z,0.00
2022-09-16T02:47:08.152Z,0.00
2022-09-16T02:48:08.122Z,0.00
2022-09-16T02:49:08.112Z,0.00
2022-09-16T02:50:08.105Z,0.00
2022-09-16T02:51:08.095Z,0.00
2022-09-16T02:52:08.074Z,0.00
2022-09-16T02:53:08.060Z,0.00
2022-09-16T02:54:08.054Z,0.00
2022-09-16T02:55:08.035Z,0.00
2022-09-16T02:56:08.026Z,0.00
2022-09-16T02:57:08.023Z,0.00
2022-09-16T02:58:07.994Z,0.00
2022-09-16T02:59:07.984Z,0.00
2022-09-16T03:00:07.965Z,0.00
2022-09-16T03:01:07.976Z,0.00
2022-09-16T03:02:08.009Z,0.00
2022-09-16T03:03:07.988Z,0.00
2022-09-16T03:04:07.916Z,0.00
2022-09-16T03:05:07.906Z,0.00
2022-09-16T03:06:07.887Z,0.00
2022-09-16T03:07:07.887Z,0.00
2022-09-16T03:08:07.857Z,0.00
2022-09-16T03:09:07.853Z,0.00
2022-09-16T03:10:07.847Z,0.00
2022-09-16T03:11:07.823Z,0.00
2022-09-16T03:12:07.818Z,0.00
2022-09-16T03:13:07.798Z,0.00
2022-09-16T03:14:07.789Z,0.00
2022-09-16T03:15:07.769Z,0.00
2022-09-16T03:16:07.815Z,0.00
2022-09-16T03:17:07.762Z,0.00
2022-09-16T03:18:07.727Z,0.00
2022-09-16T03:19:07.720Z,0.00
2022-09-16T03:20:07.701Z,0.00
2022-09-16T03:21:07.710Z,0.00
2022-09-16T03:22:07.681Z,0.00
2022-09-16T03:23:07.671Z,0.00
2022-09-16T03:24:07.661Z,0.00
2022-09-16T03:25:07.656Z,0.00
2022-09-16T03:26:07.639Z,0.00
2022-09-16T03:27:07.615Z,0.00
2022-09-16T03:28:07.602Z,0.00
2022-09-16T03:29:08.540Z,0.00
2022-09-16T03:30:07.581Z,0.00
2022-09-16T03:31:07.619Z,0.00
2022-09-16T03:32:07.553Z,0.00
2022-09-16T03:33:07.544Z,0.00
2022-09-16T03:34:07.524Z,0.00
2022-09-16T03:35:07.515Z,0.00
2022-09-16T03:36:07.534Z,0.00
2022-09-16T03:37:07.484Z,0.00
2022-09-16T03:38:07.475Z,0.00
2022-09-16T03:39:07.456Z,0.00
2022-09-16T03:40:07.498Z,0.00
2022-09-16T03:41:07.445Z,0.00
2022-09-16T03:42:07.417Z,0.00
2022-09-16T03:43:07.405Z,0.00
2022-09-16T03:44:07.396Z,0.00
2022-09-16T03:45:07.386Z,0.00
2022-09-16T03:46:07.417Z,0.00
2022-09-16T03:47:07.347Z,0.00
2022-09-16T03:48:07.338Z,0.00
2022-09-16T03:49:07.318Z,0.00
2022-09-16T03:50:07.318Z,0.00
2022-09-16T03:51:07.318Z,0.00
2022-09-16T03:52:07.289Z,0.00
2022-09-16T03:53:07.275Z,0.00
2022-09-16T03:54:08.220Z,0.00
2022-09-16T03:55:07.249Z,0.00
2022-09-16T03:56:07.241Z,0.00
2022-09-16T03:57:07.219Z,0.00
2022-09-16T03:58:07.210Z,0.00
2022-09-16T03:59:07.190Z,0.00
2022-09-16T04:00:08.140Z,0.00
2022-09-16T04:01:07.221Z,0.00
2022-09-16T04:02:07.169Z,0.00
2022-09-16T04:03:07.205Z,0.00
2022-09-16T04:04:07.132Z,0.00
2022-09-16T04:05:07.122Z,0.00
2022-09-16T04:06:07.113Z,0.00
2022-09-16T04:07:07.092Z,0.00
2022-09-16T04:08:07.083Z,0.00
2022-09-16T04:09:07.063Z,0.00
2022-09-16T04:10:07.056Z,2.00
2022-09-16T04:11:07.067Z,2.00
2022-09-16T04:12:07.032Z,0.00
2022-09-16T04:13:07.009Z,0.00
2022-09-16T04:14:07.003Z,0.00
2022-09-16T04:15:06.987Z,0.00
2022-09-16T04:16:07.055Z,0.00
2022-09-16T04:17:06.966Z,0.00
2022-09-16T04:18:06.945Z,0.00
2022-09-16T04:19:06.925Z,1.00
2022-09-16T04:20:06.926Z,5.00
2022-09-16T04:21:06.916Z,3.00
2022-09-16T04:22:06.897Z,5.00
2022-09-16T04:23:06.877Z,13.00
2022-09-16T04:24:10.770Z,5.00
2022-09-16T04:25:07.859Z,8.00
2022-09-16T04:26:06.852Z,10.00
2022-09-16T04:27:06.827Z,6.00
2022-09-16T04:28:06.818Z,13.00
2022-09-16T04:29:06.800Z,17.00
2022-09-16T04:30:06.789Z,31.00
2022-09-16T04:31:06.884Z,25.00
2022-09-16T04:32:06.765Z,33.00
2022-09-16T04:33:06.751Z,34.00
2022-09-16T04:34:06.731Z,30.00
2022-09-16T04:35:06.729Z,32.00
2022-09-16T04:36:06.731Z,34.00
2022-09-16T04:37:06.691Z,39.00
2022-09-16T04:38:06.690Z,50.00
2022-09-16T04:39:06.673Z,69.00
2022-09-16T04:40:06.709Z,84.00
2022-09-16T04:41:06.643Z,99.00
2022-09-16T04:42:06.632Z,121.00
2022-09-16T04:43:06.619Z,134.00
2022-09-16T04:44:06.610Z,175.00
2022-09-16T04:45:06.592Z,187.00
2022-09-16T04:46:06.634Z,201.00
2022-09-16T04:47:06.565Z,222.00
2022-09-16T04:48:06.553Z,232.00
2022-09-16T04:49:06.533Z,266.00
2022-09-16T04:50:06.535Z,276.00
2022-09-16T04:51:06.504Z,294.00
2022-09-16T04:52:06.504Z,320.00
2022-09-16T04:53:06.484Z,339.00
2022-09-16T04:54:06.471Z,368.00
2022-09-16T04:55:06.465Z,382.00
2022-09-16T04:56:06.447Z,421.00
2022-09-16T04:57:06.425Z,444.00
2022-09-16T04:58:06.425Z,470.00
2022-09-16T04:59:06.408Z,493.00
2022-09-16T05:00:06.407Z,520.00
2022-09-16T05:01:06.447Z,548.00
2022-09-16T05:02:06.366Z,583.00
2022-09-16T05:03:06.391Z,612.00
2022-09-16T05:04:06.345Z,648.00
2022-09-16T05:05:06.338Z,681.00
2022-09-16T05:06:06.328Z,727.00
2022-09-16T05:07:06.298Z,765.00
2022-09-16T05:08:06.289Z,804.00
2022-09-16T05:09:06.269Z,848.00
2022-09-16T05:10:06.276Z,914.00
2022-09-16T05:11:06.259Z,969.00
2022-09-16T05:12:06.239Z,1003.00
2022-09-16T05:13:06.220Z,1044.00
2022-09-16T05:14:06.218Z,1081.00
2022-09-16T05:15:06.209Z,1099.00
2022-09-16T05:16:06.238Z,1116.00
2022-09-16T05:17:06.180Z,1126.00
2022-09-16T05:18:07.111Z,1136.00
2022-09-16T05:19:06.140Z,1078.00
2022-09-16T05:20:06.149Z,1093.00
2022-09-16T05:21:06.112Z,1146.00
2022-09-16T05:22:06.101Z,1213.00
2022-09-16T05:23:06.092Z,1265.00
2022-09-16T05:24:06.085Z,1300.00
2022-09-16T05:25:06.079Z,1347.00
2022-09-16T05:26:06.057Z,1435.00
2022-09-16T05:27:06.042Z,1597.00
2022-09-16T05:28:06.031Z,1563.00
2022-09-16T05:29:06.014Z,1641.00
2022-09-16T05:30:06.015Z,1753.00
2022-09-16T05:31:06.044Z,1835.00
2022-09-16T05:32:05.976Z,1959.00
2022-09-16T05:33:05.955Z,2032.00
2022-09-16T05:34:05.945Z,2070.00
2022-09-16T05:35:05.945Z,2110.00
2022-09-16T05:36:05.925Z,2137.00
2022-09-16T05:37:05.906Z,2180.00
2022-09-16T05:38:05.916Z,2242.00
2022-09-16T05:40:06.924Z,2274.00
2022-09-16T05:41:05.856Z,2259.00
2022-09-16T05:42:05.849Z,2220.00
2022-09-16T05:43:05.828Z,2206.00
2022-09-16T05:44:05.873Z,2172.00
2022-09-16T05:45:05.810Z,2157.00
2022-09-16T05:46:05.833Z,2167.00
2022-09-16T05:47:05.787Z,2217.00
2022-09-16T05:48:05.769Z,2291.00
2022-09-16T05:49:05.749Z,2327.00
2022-09-16T05:50:05.749Z,2427.00
2022-09-16T05:51:05.719Z,2541.00
2022-09-16T05:52:05.711Z,2551.00
2022-09-16T05:53:05.700Z,2491.00
2022-09-16T05:54:05.708Z,2371.00
2022-09-16T05:55:05.838Z,2299.00
2022-09-16T05:56:05.672Z,2281.00
2022-09-16T05:57:07.100Z,2255.00
2022-09-16T05:58:05.641Z,2256.00
2022-09-16T05:59:05.621Z,2155.00
2022-09-16T06:00:05.622Z,1991.00
2022-09-16T06:01:05.613Z,1802.00
2022-09-16T06:02:05.660Z,1594.00
2022-09-16T06:03:05.573Z,1624.00
2022-09-16T06:04:05.560Z,1518.00
2022-09-16T06:05:05.552Z,1567.00
2022-09-16T06:06:05.533Z,1582.00
2022-09-16T06:07:05.514Z,1634.00
2022-09-16T06:08:05.505Z,1711.00
2022-09-16T06:09:05.494Z,1720.00
2022-09-16T06:10:05.495Z,1733.00
2022-09-16T06:11:05.455Z,1841.00
2022-09-16T06:12:05.455Z,2059.00
2022-09-16T06:13:05.435Z,2302.00
2022-09-16T06:14:05.425Z,2518.00
2022-09-16T06:15:05.416Z,2637.00
2022-09-16T06:16:05.444Z,2805.00
2022-09-16T06:17:05.385Z,2964.00
2022-09-16T06:18:06.673Z,3067.00
2022-09-16T06:19:05.376Z,3215.00
2022-09-16T06:20:05.357Z,3335.00
2022-09-16T06:21:05.339Z,3392.00
2022-09-16T06:22:05.341Z,3406.00
2022-09-16T06:23:05.318Z,3389.00
2022-09-16T06:24:05.306Z,3350.00
2022-09-16T06:25:05.278Z,3365.00
2022-09-16T06:26:05.269Z,3427.00
2022-09-16T06:27:05.253Z,3460.00
2022-09-16T06:28:05.247Z,3458.00
2022-09-16T06:29:05.239Z,3519.00
2022-09-16T06:30:05.217Z,3703.00
2022-09-16T06:31:05.279Z,3926.00
2022-09-16T06:32:05.199Z,3992.00
2022-09-16T06:33:05.180Z,3913.00
2022-09-16T06:34:05.185Z,3797.00
2022-09-16T06:35:05.160Z,3716.00
2022-09-16T06:36:05.152Z,3743.00
2022-09-16T06:37:05.121Z,3794.00
2022-09-16T06:38:05.123Z,3759.00
2022-09-16T06:39:05.113Z,3781.00
2022-09-16T06:40:05.154Z,3727.00
2022-09-16T06:41:05.078Z,3698.00
2022-09-16T06:42:05.065Z,3589.00
2022-09-16T06:43:05.052Z,3664.00
2022-09-16T06:44:05.050Z,3729.00
2022-09-16T06:45:05.034Z,3771.00
2022-09-16T06:46:05.089Z,3808.00
2022-09-16T06:47:04.997Z,3751.00
2022-09-16T06:48:04.992Z,3753.00
2022-09-16T06:49:06.413Z,3710.00
2022-09-16T06:50:04.961Z,3652.00
2022-09-16T06:51:04.945Z,3713.00
2022-09-16T06:52:04.936Z,3765.00
2022-09-16T06:53:05.584Z,3816.00
2022-09-16T06:54:04.922Z,3860.00
2022-09-16T06:55:04.895Z,3916.00
2022-09-16T06:56:04.887Z,3882.00
2022-09-16T06:57:06.597Z,3717.00
2022-09-16T06:58:05.868Z,3498.00
2022-09-16T06:59:04.848Z,3394.00
2022-09-16T07:00:04.836Z,3375.00
2022-09-16T07:01:04.897Z,3432.00
2022-09-16T07:02:04.851Z,3527.00
2022-09-16T07:03:04.799Z,3589.00
2022-09-16T07:04:04.789Z,3689.00
2022-09-16T07:05:04.766Z,3775.00
2022-09-16T07:06:04.761Z,3789.00
2022-09-16T07:07:09.686Z,3758.00
2022-09-16T07:08:05.731Z,3676.00
2022-09-16T07:09:04.731Z,3517.00
2022-09-16T07:10:04.711Z,3403.00
2022-09-16T07:11:04.693Z,3455.00
2022-09-16T07:12:04.682Z,3567.00
2022-09-16T07:13:04.677Z,3749.00
2022-09-16T07:14:04.672Z,3908.00
2022-09-16T07:15:04.640Z,4094.00
2022-09-16T07:16:19.854Z,4338.00
2022-09-16T07:17:05.683Z,4582.00
2022-09-16T07:18:04.604Z,4630.00
2022-09-16T07:19:04.877Z,4358.00
2022-09-16T07:20:04.575Z,3827.00
2022-09-16T07:21:04.555Z,3496.00
2022-09-16T07:22:04.555Z,3576.00
2022-09-16T07:23:04.536Z,3861.00
2022-09-16T07:24:04.536Z,4143.00
2022-09-16T07:25:04.519Z,4295.00
2022-09-16T07:26:04.503Z,4345.00
2022-09-16T07:27:04.476Z,4483.00
2022-09-16T07:28:04.492Z,4571.00
2022-09-16T07:29:04.469Z,4586.00
2022-09-16T07:30:08.834Z,4567.00
2022-09-16T07:31:04.525Z,4678.00
2022-09-16T07:32:04.424Z,4800.00
2022-09-16T07:33:04.405Z,4814.00
2022-09-16T07:34:04.960Z,4783.00
2022-09-16T07:35:04.376Z,4832.00
2022-09-16T07:36:04.369Z,4929.00
2022-09-16T07:37:04.359Z,4980.00
2022-09-16T07:38:04.341Z,4916.00
2022-09-16T07:39:04.330Z,4852.00
2022-09-16T07:40:04.331Z,4782.00
2022-09-16T07:41:04.301Z,4747.00
2022-09-16T07:42:06.178Z,4504.00
2022-09-16T07:43:04.271Z,4838.00
2022-09-16T07:44:04.271Z,5123.00
2022-09-16T07:45:04.253Z,5295.00
2022-09-16T07:46:04.305Z,5268.00
2022-09-16T07:47:04.223Z,4617.00
2022-09-16T07:48:04.202Z,4641.00
2022-09-16T07:49:04.206Z,4883.00
2022-09-16T07:50:04.183Z,4445.00
2022-09-16T07:51:04.171Z,4276.00
2022-09-16T07:52:04.151Z,4386.00
2022-09-16T07:53:04.156Z,4178.00
2022-09-16T07:54:04.134Z,4104.00
2022-09-16T07:55:04.115Z,4543.00
2022-09-16T07:56:04.095Z,5449.00
2022-09-16T07:57:04.085Z,5900.00
2022-09-16T07:58:04.149Z,5250.00
2022-09-16T07:59:04.066Z,5297.00
2022-09-16T08:00:04.046Z,5294.00
2022-09-16T08:01:04.995Z,5307.00
2022-09-16T08:02:04.101Z,4940.00
2022-09-16T08:03:04.097Z,5021.00
2022-09-16T08:04:03.998Z,4907.00
2022-09-16T08:05:03.994Z,4604.00
2022-09-16T08:06:03.978Z,4433.00
2022-09-16T08:07:03.957Z,4794.00
2022-09-16T08:08:03.940Z,4842.00
2022-09-16T08:09:15.681Z,5188.00
2022-09-16T08:10:04.911Z,5977.00
2022-09-16T08:11:03.916Z,6429.00
2022-09-16T08:12:03.880Z,6492.00
2022-09-16T08:13:03.872Z,6898.00
2022-09-16T08:14:04.863Z,7083.00
2022-09-16T08:15:03.851Z,6500.00
2022-09-16T08:16:03.831Z,6421.00
2022-09-16T08:17:03.826Z,6560.00
2022-09-16T08:18:03.803Z,6199.00
2022-09-16T08:19:03.802Z,5501.00
2022-09-16T08:20:03.816Z,5002.00
2022-09-16T08:21:03.770Z,5165.00
2022-09-16T08:22:03.754Z,5586.00
2022-09-16T08:23:03.741Z,5974.00
2022-09-16T08:24:03.739Z,6160.00
2022-09-16T08:25:03.729Z,6410.00
2022-09-16T08:26:03.695Z,6665.00
2022-09-16T08:27:03.695Z,6736.00
2022-09-16T08:28:03.686Z,6655.00
2022-09-16T08:29:08.797Z,6734.00
2022-09-16T08:30:05.608Z,6991.00
2022-09-16T08:31:03.636Z,6732.00
2022-09-16T08:32:03.681Z,6637.00
2022-09-16T08:33:03.607Z,7110.00
2022-09-16T08:34:03.597Z,7381.00
2022-09-16T08:35:03.587Z,7461.00
2022-09-16T08:36:03.565Z,6992.00
2022-09-16T08:37:03.554Z,6547.00
2022-09-16T08:38:04.491Z,7091.00
2022-09-16T08:39:03.540Z,7388.00
2022-09-16T08:40:03.615Z,7393.00
2022-09-16T08:41:03.499Z,6813.00
2022-09-16T08:42:03.483Z,6217.00
2022-09-16T08:43:03.480Z,5719.00
2022-09-16T08:44:03.470Z,6022.00
2022-09-16T08:45:03.451Z,6734.00
2022-09-16T08:46:03.484Z,6604.00
2022-09-16T08:47:03.425Z,6118.00
2022-09-16T08:48:03.403Z,5323.00
2022-09-16T08:49:03.438Z,4738.00
2022-09-16T08:50:03.399Z,4556.00
2022-09-16T08:51:03.381Z,4386.00
2022-09-16T08:52:03.356Z,5199.00
2022-09-16T08:53:03.345Z,5123.00
2022-09-16T08:54:03.334Z,4481.00
2022-09-16T08:55:03.315Z,3880.00
2022-09-16T08:56:03.304Z,4216.00
2022-09-16T08:57:03.293Z,4968.00
2022-09-16T08:58:03.275Z,5408.00
2022-09-16T08:59:04.231Z,5628.00
2022-09-16T09:00:03.256Z,5532.00
2022-09-16T09:01:03.414Z,5508.00
2022-09-16T09:02:08.890Z,5464.00
2022-09-16T09:03:04.207Z,5298.00
2022-09-16T09:04:03.196Z,4916.00
2022-09-16T09:05:04.145Z,4451.00
2022-09-16T09:06:03.168Z,4517.00
2022-09-16T09:07:03.161Z,5252.00
2022-09-16T09:08:03.148Z,6250.00
2022-09-16T09:09:03.132Z,7018.00
2022-09-16T09:10:07.025Z,7333.00
2022-09-16T09:11:04.110Z,7070.00
2022-09-16T09:12:03.093Z,5012.00
2022-09-16T09:13:03.411Z,4505.00
2022-09-16T09:14:03.058Z,4618.00
2022-09-16T09:15:03.057Z,5549.00
2022-09-16T09:16:03.096Z,6549.00
2022-09-16T09:17:03.022Z,6648.00
2022-09-16T09:18:03.971Z,4831.00
2022-09-16T09:19:03.010Z,6945.00
2022-09-16T09:20:02.982Z,6864.00
2022-09-16T09:21:03.824Z,6314.00
2022-09-16T09:22:02.952Z,5417.00
2022-09-16T09:23:02.953Z,4068.00
2022-09-16T09:24:02.923Z,2788.00
2022-09-16T09:25:02.915Z,1951.00
2022-09-16T09:26:02.897Z,1783.00
2022-09-16T09:27:02.883Z,2351.00
2022-09-16T09:28:02.876Z,3298.00
2022-09-16T09:29:02.863Z,3853.00
2022-09-16T09:30:02.859Z,4244.00
2022-09-16T09:31:04.349Z,4969.00
2022-09-16T09:32:02.875Z,5918.00
2022-09-16T09:33:02.927Z,6640.00
2022-09-16T09:34:02.813Z,7004.00
2022-09-16T09:35:02.785Z,7025.00
2022-09-16T09:36:02.769Z,6797.00
2022-09-16T09:37:02.758Z,6472.00
2022-09-16T09:38:03.678Z,6275.00
2022-09-16T09:39:02.728Z,5186.00
2022-09-16T09:40:02.747Z,5423.00
2022-09-16T09:41:02.709Z,6582.00
2022-09-16T09:42:02.690Z,5391.00
2022-09-16T09:43:02.680Z,5986.00
2022-09-16T09:44:02.660Z,5177.00
2022-09-16T09:45:02.768Z,4453.00
2022-09-16T09:46:02.666Z,5999.00
2022-09-16T09:47:02.634Z,6252.00
2022-09-16T09:48:02.607Z,7687.00
2022-09-16T09:49:02.593Z,7349.00
2022-09-16T09:50:02.581Z,7322.00
2022-09-16T09:51:02.570Z,6963.00
2022-09-16T09:52:02.565Z,6736.00
2022-09-16T09:53:02.544Z,6131.00
2022-09-16T09:54:02.533Z,5051.00
2022-09-16T09:55:04.513Z,5761.00
2022-09-16T09:56:03.455Z,6077.00
2022-09-16T09:57:02.497Z,6624.00
2022-09-16T09:58:02.474Z,6892.00
2022-09-16T09:59:02.464Z,7000.00
2022-09-16T10:00:02.445Z,7088.00
2022-09-16T10:01:02.538Z,7206.00
2022-09-16T10:02:02.534Z,7510.00
2022-09-16T10:03:02.416Z,7680.00
2022-09-16T10:04:02.406Z,7596.00
2022-09-16T10:05:02.652Z,7242.00
2022-09-16T10:06:03.990Z,7808.00
2022-09-16T10:08:02.338Z,7794.00
2022-09-16T10:09:03.140Z,7586.00
2022-09-16T10:10:02.310Z,7079.00
2022-09-16T10:11:02.298Z,6465.00
2022-09-16T10:12:02.299Z,6050.00
2022-09-16T10:13:02.277Z,5725.00
2022-09-16T10:14:02.265Z,5486.00
2022-09-16T10:15:02.250Z,5222.00
2022-09-16T10:16:03.227Z,4815.00
2022-09-16T10:17:02.230Z,4594.00
2022-09-16T10:18:02.210Z,4553.00
2022-09-16T10:19:02.211Z,4664.00
2022-09-16T10:20:02.174Z,4688.00
2022-09-16T10:21:03.134Z,3408.00
2022-09-16T10:22:03.108Z,3349.00
2022-09-16T10:23:02.138Z,3354.00
2022-09-16T10:24:02.123Z,3362.00
2022-09-16T10:25:03.067Z,3337.00
2022-09-16T10:26:03.050Z,3412.00
2022-09-16T10:27:03.052Z,3565.00
2022-09-16T10:28:02.078Z,3770.00
2022-09-16T10:29:02.057Z,4022.00
2022-09-16T10:30:03.002Z,4178.00
2022-09-16T10:31:02.140Z,4427.00
2022-09-16T10:32:02.073Z,4424.00
2022-09-16T10:33:02.015Z,4398.00
2022-09-16T10:34:01.986Z,4298.00
2022-09-16T10:35:02.002Z,4185.00
2022-09-16T10:36:01.961Z,5973.00
2022-09-16T10:37:01.966Z,4252.00
2022-09-16T10:38:01.936Z,4225.00
2022-09-16T10:39:04.602Z,4600.00
2022-09-16T10:40:01.997Z,4771.00
2022-09-16T10:41:02.859Z,4397.00
2022-09-16T10:42:01.888Z,4313.00
2022-09-16T10:43:01.877Z,4420.00
2022-09-16T10:44:01.853Z,4819.00
2022-09-16T10:45:01.851Z,4862.00
2022-09-16T10:46:01.897Z,4653.00
2022-09-16T10:47:02.789Z,4608.00
2022-09-16T10:48:05.056Z,4916.00
2022-09-16T10:49:02.771Z,5056.00
2022-09-16T10:50:02.722Z,4907.00
2022-09-16T10:51:01.772Z,4702.00
2022-09-16T10:52:03.392Z,4568.00
2022-09-16T10:53:01.763Z,4455.00
2022-09-16T10:54:01.739Z,4412.00
2022-09-16T10:55:01.724Z,4404.00
2022-09-16T10:56:01.702Z,4593.00
2022-09-16T10:57:01.703Z,4825.00
2022-09-16T10:58:01.673Z,4903.00
2022-09-16T10:59:01.661Z,6110.00
2022-09-16T11:00:01.645Z,5966.00
2022-09-16T11:01:01.826Z,6217.00
2022-09-16T11:02:01.875Z,5878.00
2022-09-16T11:03:01.775Z,5977.00
2022-09-16T11:04:01.605Z,7520.00
2022-09-16T11:05:01.599Z,6746.00
2022-09-16T11:06:01.573Z,7409.00
2022-09-16T11:07:01.574Z,7561.00
2022-09-16T11:08:01.547Z,6023.00
2022-09-16T11:09:01.539Z,8508.00
2022-09-16T11:10:01.518Z,6243.00
2022-09-16T11:11:01.508Z,6247.00
2022-09-16T11:12:01.761Z,6415.00
2022-09-16T11:13:01.487Z,7255.00
2022-09-16T11:14:01.476Z,7702.00
2022-09-16T11:15:01.462Z,5986.00
2022-09-16T11:16:01.482Z,6137.00
2022-09-16T11:17:01.440Z,7301.00
2022-09-16T11:18:01.410Z,8017.00
2022-09-16T11:19:01.408Z,6279.00
2022-09-16T11:20:01.398Z,5545.00
2022-09-16T11:21:01.379Z,4956.00
2022-09-16T11:22:01.373Z,4349.00
2022-09-16T11:23:01.357Z,3941.00
2022-09-16T11:24:01.343Z,3683.00
2022-09-16T11:25:01.323Z,3529.00
2022-09-16T11:26:01.311Z,3456.00
2022-09-16T11:27:02.264Z,3501.00
2022-09-16T11:28:01.284Z,4820.00
2022-09-16T11:29:01.274Z,3465.00
2022-09-16T11:30:01.257Z,3491.00
2022-09-16T11:31:01.337Z,3358.00
2022-09-16T11:32:01.226Z,3406.00
2022-09-16T11:33:03.052Z,5331.00
2022-09-16T11:34:01.391Z,5221.00
2022-09-16T11:35:01.197Z,4113.00
2022-09-16T11:36:01.186Z,4382.00
2022-09-16T11:37:01.172Z,6260.00
2022-09-16T11:38:01.148Z,6519.00
2022-09-16T11:39:01.138Z,6615.00
2022-09-16T11:40:01.152Z,5053.00
2022-09-16T11:41:01.121Z,5565.00
2022-09-16T11:42:01.103Z,5357.00
2022-09-16T11:43:01.102Z,7921.00
2022-09-16T11:44:01.081Z,6051.00
2022-09-16T11:45:01.069Z,7265.00
2022-09-16T11:46:01.081Z,7444.00
2022-09-16T11:47:01.031Z,7463.00
2022-09-16T11:48:01.021Z,6353.00
2022-09-16T11:49:01.012Z,6124.00
2022-09-16T11:50:00.993Z,6021.00
2022-09-16T11:51:00.993Z,5748.00
2022-09-16T11:52:00.963Z,5451.00
2022-09-16T11:53:04.724Z,5548.00
2022-09-16T11:54:01.514Z,4497.00
2022-09-16T11:55:00.934Z,4984.00
2022-09-16T11:56:00.927Z,5000.00
2022-09-16T11:57:00.913Z,4585.00
2022-09-16T11:58:00.895Z,5218.00
2022-09-16T11:59:00.886Z,5855.00
2022-09-16T12:00:00.867Z,7620.00
2022-09-16T12:01:00.875Z,8308.00
2022-09-16T12:02:00.888Z,6357.00
2022-09-16T12:03:00.885Z,7338.00
2022-09-16T12:04:00.822Z,6637.00
2022-09-16T12:05:00.797Z,6333.00
2022-09-16T12:06:00.798Z,5969.00
2022-09-16T12:07:00.768Z,5508.00
2022-09-16T12:08:00.759Z,3960.00
2022-09-16T12:09:00.749Z,4186.00
2022-09-16T12:10:00.742Z,4499.00
2022-09-16T12:11:00.730Z,4361.00
2022-09-16T12:12:00.710Z,4212.00
2022-09-16T12:13:00.695Z,4120.00
2022-09-16T12:14:05.847Z,3849.00
2022-09-16T12:15:05.440Z,3423.00
2022-09-16T12:16:00.678Z,2813.00
2022-09-16T12:17:00.644Z,2442.00
2022-09-16T12:18:00.643Z,2255.00
2022-09-16T12:19:00.613Z,2101.00
2022-09-16T12:20:00.604Z,1933.00
2022-09-16T12:21:00.594Z,1741.00
2022-09-16T12:22:00.585Z,1506.00
2022-09-16T12:23:00.564Z,1232.00
2022-09-16T12:24:00.551Z,1153.00
2022-09-16T12:25:00.544Z,1217.00
2022-09-16T12:26:00.542Z,1289.00
2022-09-16T12:27:00.516Z,1300.00
2022-09-16T12:28:00.506Z,1235.00
2022-09-16T12:29:00.491Z,1206.00
2022-09-16T12:30:00.481Z,1257.00
2022-09-16T12:31:00.511Z,1456.00
2022-09-16T12:32:00.457Z,1725.00
2022-09-16T12:33:00.428Z,1955.00